Raymondville, New York
Current Conditions -  °F | °C
As of 1:53 AM on Wednesday 22 Oct 2014 (Local Time) from KMSS Reporting Station
Overcast Overcast  
Wind Chill: 38°   Ceiling: 2200
Heat Index: 45°   Visibility: 10mi
Dew Point: 35°   Wind: 15mph
Humidity: 68%   Direction: 30°NNE
Pressure: 30.16"   Gusts: NA
Location:  44.84°N, 74.97°W
Report Text: KMSS 220553Z AUTO 03013KT 10SM OVC022 07/02 A3016 RMK AO2 SLP217 T00720017 10078 20072 51002
Loading
Personal Weather Stations






























Interactive Weather Map
Tropical Storm Tracking
New forecast layout! Learn more

10-Day Weather Forecast

Advertisements
Track Severe Weather on mobile